Time;durP1;ratioP1;P1;durP2;ratioP2;P2;SDS_P1;SDS_P2;PMS_P1;PMS_P2;Temp;Humidity;BMP_temperature;BMP_pressure;BME280_temperature;BME280_humidity;BME280_pressure;Samples;Min_cycle;Max_cycle;Signal;HPM_P1;HPM_P2
2022/06/05 00:00:51;;;;;;;1.50;0.50;;;14.10;99.90;;;;;;5089021;28;20384;-86
2022/06/05 00:03:39;;;;;;;1.77;0.50;;;14.20;99.90;;;;;;5088686;28;20368;-87
2022/06/05 00:06:20;;;;;;;1.85;0.60;;;14.20;99.90;;;;;;5089291;28;20364;-86
2022/06/05 00:09:03;;;;;;;0.80;0.47;;;14.40;99.90;;;;;;5089058;28;20357;-86
2022/06/05 00:11:48;;;;;;;0.80;0.40;;;14.40;99.90;;;;;;5089458;28;20415;-86
2022/06/05 00:14:16;;;;;;;0.87;0.50;;;14.40;99.90;;;;;;5070926;28;20385;-87
2022/06/05 00:16:44;;;;;;;1.70;0.60;;;14.50;99.90;;;;;;5091369;28;20915;-87
2022/06/05 00:19:12;;;;;;;1.98;0.60;;;14.60;99.90;;;;;;5089682;28;20866;-86
2022/06/05 00:21:39;;;;;;;1.08;0.40;;;14.70;99.90;;;;;;5089021;28;20399;-84
2022/06/05 00:24:09;;;;;;;0.93;0.60;;;14.80;99.90;;;;;;5088694;28;20368;-85
2022/06/05 00:26:50;;;;;;;2.33;0.50;;;14.90;99.90;;;;;;5088552;28;20368;-86
2022/06/05 00:29:33;;;;;;;1.05;0.60;;;15.00;99.90;;;;;;5088868;28;20414;-85
2022/06/05 00:32:10;;;;;;;1.00;0.70;;;15.10;99.90;;;;;;5088864;28;20392;-85
2022/06/05 00:34:37;;;;;;;0.80;0.50;;;15.20;99.90;;;;;;5088521;28;20416;-86
2022/06/05 00:37:33;;;;;;;1.27;0.70;;;15.30;99.90;;;;;;5070372;28;20391;-86
2022/06/05 00:40:11;;;;;;;1.77;1.15;;;15.30;99.90;;;;;;5088519;28;20407;-85
2022/06/05 00:42:39;;;;;;;3.28;2.75;;;15.30;99.90;;;;;;5089035;28;20383;-86
2022/06/05 00:45:09;;;;;;;2.45;1.20;;;15.40;99.90;;;;;;5089768;28;20379;-85
2022/06/05 00:47:38;;;;;;;1.10;0.70;;;15.50;99.90;;;;;;5092727;28;20395;-86
2022/06/05 00:50:23;;;;;;;2.17;0.90;;;15.50;99.60;;;;;;5092879;28;20448;-85
2022/06/05 00:52:56;;;;;;;1.02;0.70;;;15.70;99.30;;;;;;5093318;28;20729;-84
2022/06/05 00:55:27;;;;;;;2.03;0.80;;;15.60;98.60;;;;;;5093159;28;20366;-82
2022/06/05 00:57:56;;;;;;;1.73;1.30;;;15.80;99.40;;;;;;5092674;28;20373;-84
2022/06/05 01:00:32;;;;;;;2.43;0.90;;;15.90;98.70;;;;;;5092211;28;20380;-85
2022/06/05 01:03:04;;;;;;;2.40;0.60;;;16.00;97.90;;;;;;5075403;28;20376;-84
2022/06/05 01:05:32;;;;;;;2.55;0.80;;;15.80;97.80;;;;;;5092802;28;20376;-86
2022/06/05 01:08:00;;;;;;;1.75;1.00;;;15.90;98.40;;;;;;5092128;28;20459;-86
2022/06/05 01:10:48;;;;;;;2.17;1.20;;;16.00;98.60;;;;;;5073813;28;20388;-85
2022/06/05 01:13:46;;;;;;;2.80;1.90;;;16.10;98.20;;;;;;5092140;28;20368;-87
2022/06/05 01:16:40;;;;;;;1.00;0.90;;;16.30;97.30;;;;;;5091982;28;20407;-86
2022/06/05 01:19:20;;;;;;;1.80;0.90;;;16.20;97.70;;;;;;5091931;28;20422;-86
2022/06/05 01:22:02;;;;;;;2.00;0.77;;;16.30;97.30;;;;;;5092922;28;20693;-84
2022/06/05 01:24:42;;;;;;;0.90;0.70;;;16.40;97.70;;;;;;5092164;28;20368;-85
2022/06/05 01:27:16;;;;;;;1.13;0.90;;;16.50;96.00;;;;;;5092186;28;20421;-85
2022/06/05 01:30:00;;;;;;;0.90;0.70;;;16.60;95.70;;;;;;5091897;28;20381;-86
2022/06/05 01:32:42;;;;;;;1.38;0.50;;;16.70;94.40;;;;;;5091975;28;20372;-86
2022/06/05 01:35:35;;;;;;;0.77;0.50;;;16.80;92.60;;;;;;5077405;28;20747;-86
2022/06/05 01:38:14;;;;;;;0.80;0.60;;;16.80;92.80;;;;;;5092117;28;20426;-86
2022/06/05 01:40:48;;;;;;;0.63;0.40;;;17.00;90.50;;;;;;5092260;28;20360;-85
2022/06/05 01:43:28;;;;;;;1.40;0.50;;;17.00;82.90;;;;;;5091948;28;20437;-85
2022/06/05 01:46:00;;;;;;;1.67;0.50;;;17.10;81.30;;;;;;5091539;28;20899;-85
2022/06/05 01:48:42;;;;;;;0.70;0.70;;;17.30;82.00;;;;;;5091917;28;20372;-85
2022/06/05 01:51:19;;;;;;;1.02;0.60;;;17.40;81.00;;;;;;5091361;28;20957;-84
2022/06/05 01:53:50;;;;;;;0.80;0.50;;;17.40;79.60;;;;;;5091549;28;20369;-84
2022/06/05 01:56:31;;;;;;;0.67;0.67;;;17.50;78.50;;;;;;5091282;28;20390;-84
2022/06/05 01:59:15;;;;;;;0.80;0.60;;;17.60;75.80;;;;;;5091870;28;20859;-84
2022/06/05 02:01:48;;;;;;;0.82;0.60;;;17.60;75.40;;;;;;5091647;28;20383;-85
2022/06/05 02:04:58;;;;;;;1.10;0.70;;;17.50;73.70;;;;;;5091312;28;20365;-84
2022/06/05 02:07:33;;;;;;;1.30;0.50;;;17.70;75.50;;;;;;5048892;28;20380;-83
2022/06/05 02:10:13;;;;;;;0.90;0.50;;;17.80;74.20;;;;;;5048826;28;20380;-83
2022/06/05 02:12:40;;;;;;;0.50;0.50;;;17.80;72.00;;;;;;5049185;28;20451;-84
2022/06/05 02:15:08;;;;;;;0.60;0.60;;;17.70;72.60;;;;;;5048692;28;20798;-84
2022/06/05 02:17:36;;;;;;;1.40;0.70;;;17.60;72.60;;;;;;5048731;28;20384;-85
2022/06/05 02:20:06;;;;;;;3.40;1.30;;;17.50;72.80;;;;;;5048710;28;20880;-86
2022/06/05 02:22:52;;;;;;;0.80;0.80;;;17.70;73.40;;;;;;5048598;28;20372;-84
2022/06/05 02:25:24;;;;;;;0.73;0.50;;;17.90;71.10;;;;;;5048691;28;20983;-84
2022/06/05 02:27:57;;;;;;;0.60;0.52;;;18.00;69.80;;;;;;5048505;28;20372;-85
2022/06/05 02:30:28;;;;;;;0.90;0.70;;;18.10;70.70;;;;;;5048706;28;20937;-85
2022/06/05 02:33:19;;;;;;;1.35;0.68;;;18.30;69.80;;;;;;5048559;28;20441;-84
2022/06/05 02:35:53;;;;;;;1.40;0.80;;;18.30;69.90;;;;;;5048185;28;20438;-84
2022/06/05 02:38:39;;;;;;;0.80;0.70;;;18.40;68.90;;;;;;5031763;28;20388;-84
2022/06/05 02:41:24;;;;;;;1.25;0.60;;;18.40;70.50;;;;;;5048838;28;20375;-84
2022/06/05 02:44:31;;;;;;;0.82;0.60;;;18.40;68.60;;;;;;5058067;28;20394;-85
2022/06/05 02:47:06;;;;;;;1.10;0.50;;;18.20;70.20;;;;;;5090507;28;20372;-85
2022/06/05 02:49:45;;;;;;;1.20;0.50;;;18.10;70.70;;;;;;5091032;28;20555;-85
2022/06/05 02:52:12;;;;;;;1.63;0.40;;;17.90;70.10;;;;;;5090683;28;20469;-85
2022/06/05 02:54:58;;;;;;;1.30;0.50;;;18.00;70.20;;;;;;5090416;28;20984;-83
2022/06/05 02:57:25;;;;;;;1.00;0.47;;;17.90;70.90;;;;;;5090608;28;20368;-84
2022/06/05 02:59:52;;;;;;;1.20;0.60;;;18.00;70.10;;;;;;5090209;28;20380;-84
2022/06/05 03:05:05;;;;;;;1.00;0.50;;;17.90;69.60;;;;;;5094825;28;20433;-85
2022/06/05 03:07:33;;;;;;;0.52;0.50;;;17.80;71.10;;;;;;5101458;28;20382;-85
2022/06/05 03:10:00;;;;;;;0.65;0.43;;;17.90;71.30;;;;;;5102583;28;20411;-85
2022/06/05 03:12:27;;;;;;;1.03;0.80;;;17.90;71.70;;;;;;5096444;28;20391;-85
2022/06/05 03:14:56;;;;;;;1.42;1.00;;;18.00;71.80;;;;;;5090634;28;20372;-86
2022/06/05 03:17:26;;;;;;;0.60;0.60;;;18.30;70.10;;;;;;5090119;28;20376;-85
2022/06/05 03:19:53;;;;;;;0.90;0.60;;;18.30;69.40;;;;;;5089946;28;20397;-85
2022/06/05 03:22:20;;;;;;;0.38;0.30;;;18.20;68.00;;;;;;5090044;28;20377;-84
2022/06/05 03:24:47;;;;;;;0.50;0.40;;;18.10;67.10;;;;;;5089841;28;20463;-82
2022/06/05 03:27:16;;;;;;;0.60;0.40;;;18.10;67.70;;;;;;5091233;28;20452;-84
2022/06/05 03:29:43;;;;;;;2.15;0.50;;;17.80;68.20;;;;;;5090490;28;20391;-88
2022/06/05 03:32:11;;;;;;;1.80;0.40;;;17.70;69.50;;;;;;5090874;28;20404;-88
2022/06/05 03:34:38;;;;;;;1.98;0.45;;;17.60;67.80;;;;;;5090006;28;20383;-84
2022/06/05 03:37:05;;;;;;;3.13;0.50;;;17.60;68.80;;;;;;5090379;28;20717;-84
2022/06/05 03:39:33;;;;;;;1.17;0.80;;;17.70;68.80;;;;;;5073036;28;20412;-89
2022/06/05 03:42:00;;;;;;;2.33;1.10;;;17.60;67.20;;;;;;5089656;28;20790;-85
2022/06/05 03:44:28;;;;;;;0.85;0.70;;;17.70;68.00;;;;;;5089477;28;20390;-84
2022/06/05 03:46:56;;;;;;;1.63;0.70;;;17.80;67.70;;;;;;5089562;28;20368;-85
2022/06/05 03:49:23;;;;;;;1.15;0.50;;;18.00;69.30;;;;;;5090613;28;20369;-86
2022/06/05 03:51:50;;;;;;;0.68;0.60;;;17.90;68.80;;;;;;5092164;28;20384;-85
2022/06/05 03:54:17;;;;;;;1.27;0.68;;;17.90;69.10;;;;;;5089653;28;20445;-86
2022/06/05 03:56:44;;;;;;;1.00;0.60;;;17.80;69.80;;;;;;5090268;28;20383;-93
2022/06/05 03:59:11;;;;;;;1.15;0.40;;;17.60;70.90;;;;;;5090862;28;20880;-87
2022/06/05 04:01:39;;;;;;;2.03;1.37;;;17.60;70.30;;;;;;5090628;28;20372;-84
2022/06/05 04:04:06;;;;;;;1.25;0.43;;;17.50;70.20;;;;;;5090521;28;20386;-93
2022/06/05 04:06:33;;;;;;;0.68;0.50;;;17.40;70.40;;;;;;5089437;28;20722;-86
2022/06/05 04:09:04;;;;;;;2.00;0.60;;;17.40;70.40;;;;;;5089229;28;20372;-86
2022/06/05 04:11:34;;;;;;;1.03;0.50;;;17.40;71.50;;;;;;5089374;28;20396;-85
2022/06/05 04:14:02;;;;;;;0.50;0.50;;;17.40;71.60;;;;;;5089238;28;20364;-85
2022/06/05 04:16:30;;;;;;;0.90;0.60;;;17.30;70.50;;;;;;5089070;28;20376;-84
2022/06/05 04:18:59;;;;;;;1.50;0.45;;;17.20;71.10;;;;;;5089293;28;20458;-86
2022/06/05 04:21:29;;;;;;;0.40;0.40;;;17.20;71.60;;;;;;5089100;28;20811;-88
2022/06/05 04:23:57;;;;;;;1.05;0.70;;;17.20;71.00;;;;;;5089416;28;20409;-85
2022/06/05 04:26:27;;;;;;;0.50;0.50;;;17.10;72.10;;;;;;5089399;28;20380;-84
2022/06/05 04:28:55;;;;;;;0.50;0.50;;;17.10;71.70;;;;;;5089633;28;20449;-89
2022/06/05 04:31:31;;;;;;;0.50;0.50;;;17.10;71.40;;;;;;5088782;28;20400;-85
2022/06/05 04:34:00;;;;;;;1.33;0.52;;;17.00;71.80;;;;;;5088559;28;20367;-85
2022/06/05 04:36:28;;;;;;;0.80;0.50;;;17.00;72.30;;;;;;5088357;28;20408;-85
2022/06/05 04:38:55;;;;;;;0.63;0.40;;;17.00;72.60;;;;;;5070631;28;20374;-85
2022/06/05 04:41:26;;;;;;;0.75;0.60;;;17.00;71.90;;;;;;5088537;28;20398;-84
2022/06/05 04:43:54;;;;;;;1.90;0.90;;;16.90;72.70;;;;;;5088486;28;20859;-85
2022/06/05 04:46:23;;;;;;;1.60;0.90;;;16.90;72.50;;;;;;5088515;28;20438;-93
2022/06/05 04:48:51;;;;;;;0.95;0.90;;;16.80;70.30;;;;;;5088431;28;20369;-90
2022/06/05 04:51:20;;;;;;;0.70;0.60;;;16.70;70.70;;;;;;5088495;28;20899;-85
2022/06/05 04:53:49;;;;;;;1.02;0.98;;;16.60;71.10;;;;;;5088566;28;20411;-83
2022/06/05 04:56:19;;;;;;;2.38;0.70;;;16.60;71.50;;;;;;5088069;28;20459;-88
2022/06/05 04:58:47;;;;;;;1.33;0.87;;;16.60;70.90;;;;;;5088255;28;20369;-86
2022/06/05 05:01:17;;;;;;;1.52;0.80;;;16.60;71.00;;;;;;5088692;28;20368;-90
2022/06/05 05:03:44;;;;;;;1.70;1.20;;;16.60;70.50;;;;;;5088661;28;20720;-90
2022/06/05 05:06:12;;;;;;;0.93;0.85;;;16.60;71.00;;;;;;5088449;28;20377;-89
2022/06/05 05:08:40;;;;;;;2.35;0.70;;;16.50;70.50;;;;;;5088376;28;20361;-84
2022/06/05 05:11:07;;;;;;;1.70;0.60;;;16.50;70.80;;;;;;5088441;28;20399;-86
2022/06/05 05:13:35;;;;;;;0.88;0.50;;;16.50;70.90;;;;;;5088243;28;20426;-80
2022/06/05 05:16:03;;;;;;;1.67;0.50;;;16.50;71.60;;;;;;5088162;28;20391;-87
2022/06/05 05:18:30;;;;;;;2.17;0.75;;;16.50;72.20;;;;;;5088986;28;20392;-85
2022/06/05 05:21:05;;;;;;;0.50;0.50;;;16.40;71.10;;;;;;5088197;28;20441;-84
2022/06/05 05:23:33;;;;;;;1.10;0.50;;;16.30;71.60;;;;;;5088091;28;20455;-81
2022/06/05 05:26:10;;;;;;;0.68;0.40;;;16.30;72.60;;;;;;5088021;28;20497;-83
2022/06/05 05:28:38;;;;;;;0.60;0.50;;;16.20;73.70;;;;;;5088211;28;20360;-88
2022/06/05 05:31:11;;;;;;;1.48;1.23;;;16.20;73.70;;;;;;5087901;28;20391;-82
2022/06/05 05:33:40;;;;;;;5.80;4.90;;;16.10;74.50;;;;;;5091651;28;20377;-85
2022/06/05 05:36:12;;;;;;;6.97;5.22;;;16.20;74.90;;;;;;5093622;28;20396;-81
2022/06/05 05:42:04;;;;;;;9.65;8.07;;;16.10;74.80;;;;;;5093093;28;20404;-84
2022/06/05 05:44:20;;;;;;;2.10;1.70;;;16.00;75.50;;;;;;5029147;28;20374;-84
2022/06/05 05:46:47;;;;;;;2.30;1.55;;;16.10;77.10;;;;;;5029414;28;20857;-84
2022/06/05 05:49:18;;;;;;;3.65;1.65;;;16.10;76.90;;;;;;5029449;28;20715;-84
2022/06/05 05:51:46;;;;;;;2.50;1.80;;;16.00;77.40;;;;;;5029579;28;20925;-84
2022/06/05 05:54:13;;;;;;;2.03;1.88;;;16.00;78.30;;;;;;5029434;28;20397;-84
2022/06/05 05:56:40;;;;;;;2.10;1.60;;;15.90;78.00;;;;;;5028930;28;20381;-83
2022/06/05 05:59:08;;;;;;;3.90;3.10;;;16.00;76.80;;;;;;5029207;28;20413;-84
2022/06/05 06:01:35;;;;;;;1.45;0.93;;;16.00;78.80;;;;;;5029039;28;20384;-82
2022/06/05 06:04:03;;;;;;;2.83;2.30;;;16.00;78.20;;;;;;5029288;28;20373;-85
2022/06/05 06:06:34;;;;;;;19.45;15.23;;;16.00;79.60;;;;;;5029120;28;20385;-83
2022/06/05 06:09:02;;;;;;;14.35;10.73;;;16.00;80.50;;;;;;5029451;28;20927;-83
2022/06/05 06:11:29;;;;;;;7.15;4.60;;;16.00;82.00;;;;;;5029448;28;20424;-83
2022/06/05 06:13:56;;;;;;;5.65;2.95;;;15.90;83.30;;;;;;5028825;28;20382;-81
2022/06/05 06:16:23;;;;;;;4.82;2.92;;;15.90;84.60;;;;;;5028825;28;20389;-84
2022/06/05 06:18:50;;;;;;;3.67;3.00;;;15.80;84.70;;;;;;5028781;28;20393;-83
2022/06/05 06:21:18;;;;;;;3.40;2.25;;;15.70;85.70;;;;;;5064968;28;20376;-83
2022/06/05 06:23:45;;;;;;;2.60;2.10;;;15.70;84.80;;;;;;5072857;28;20952;-83
2022/06/05 06:26:12;;;;;;;3.05;2.33;;;15.70;86.80;;;;;;5090719;28;20365;-85
2022/06/05 06:28:39;;;;;;;3.92;2.13;;;15.60;86.00;;;;;;5091026;28;20459;-88
2022/06/05 06:31:09;;;;;;;3.28;2.75;;;15.50;85.10;;;;;;5090746;28;20426;-85
2022/06/05 06:33:36;;;;;;;2.08;1.60;;;15.40;86.00;;;;;;5090709;28;20874;-82
2022/06/05 06:36:06;;;;;;;5.63;4.20;;;15.20;85.60;;;;;;5090480;28;20393;-87
2022/06/05 06:38:33;;;;;;;3.03;2.20;;;15.30;87.30;;;;;;5090583;28;20373;-84
2022/06/05 06:41:03;;;;;;;2.28;1.55;;;15.20;87.20;;;;;;5090511;28;20887;-86
2022/06/05 06:43:31;;;;;;;2.40;2.10;;;15.20;87.30;;;;;;5090183;28;20368;-84
2022/06/05 06:45:58;;;;;;;5.07;2.30;;;15.10;87.70;;;;;;5090388;28;20732;-86
2022/06/05 06:48:27;;;;;;;7.72;4.63;;;15.00;88.90;;;;;;5091615;28;20449;-86
2022/06/05 06:50:55;;;;;;;7.35;4.07;;;14.90;89.20;;;;;;5072126;28;20449;-85
2022/06/05 06:53:23;;;;;;;6.82;4.63;;;14.80;90.50;;;;;;5090377;28;20369;-86
2022/06/05 06:55:51;;;;;;;9.93;5.00;;;14.80;91.10;;;;;;5090146;28;20868;-88
2022/06/05 06:58:19;;;;;;;5.05;3.38;;;14.70;91.60;;;;;;5090291;28;20416;-84
2022/06/05 07:00:47;;;;;;;4.15;2.30;;;14.60;92.00;;;;;;5090315;28;20372;-86
2022/06/05 07:03:14;;;;;;;2.10;1.67;;;14.50;92.70;;;;;;5090991;28;20449;-85
2022/06/05 07:05:42;;;;;;;2.97;1.45;;;14.50;92.70;;;;;;5091824;28;20398;-88
2022/06/05 07:08:10;;;;;;;3.22;1.80;;;14.40;93.40;;;;;;5092286;28;20864;-88
2022/06/05 07:10:38;;;;;;;2.35;1.92;;;14.40;94.10;;;;;;5098018;28;20388;-83
2022/06/05 07:13:05;;;;;;;3.38;1.77;;;14.30;94.20;;;;;;5081990;28;20381;-84
2022/06/05 07:15:35;;;;;;;3.20;1.77;;;14.20;95.10;;;;;;5096408;28;20369;-83
2022/06/05 07:18:07;;;;;;;3.25;1.92;;;14.20;95.00;;;;;;5093137;28;20440;-88
2022/06/05 07:20:40;;;;;;;3.20;2.60;;;14.10;95.60;;;;;;5091459;28;20870;-88
2022/06/05 07:23:08;;;;;;;2.38;1.58;;;14.00;96.20;;;;;;5091134;28;20456;-88
2022/06/05 07:25:37;;;;;;;3.22;2.05;;;14.00;96.60;;;;;;5092349;28;20369;-82
2022/06/05 07:28:05;;;;;;;3.38;1.52;;;13.80;97.20;;;;;;5038361;28;20380;-82
2022/06/05 07:30:32;;;;;;;2.83;1.90;;;13.90;97.30;;;;;;5090092;28;20388;-87
2022/06/05 07:32:59;;;;;;;2.33;1.50;;;13.80;97.30;;;;;;5089884;28;20377;-89
2022/06/05 07:35:26;;;;;;;2.35;1.23;;;13.80;97.90;;;;;;5089652;28;20395;-84
2022/06/05 07:37:53;;;;;;;2.72;1.23;;;13.70;97.70;;;;;;5090352;28;20716;-84
2022/06/05 07:40:21;;;;;;;1.13;1.00;;;13.70;98.00;;;;;;5090271;28;20421;-85
2022/06/05 07:42:48;;;;;;;2.20;0.90;;;13.60;98.10;;;;;;5092497;28;20377;-86
2022/06/05 07:45:16;;;;;;;1.75;1.00;;;13.60;98.50;;;;;;5090450;28;20374;-85
2022/06/05 07:47:44;;;;;;;2.22;0.90;;;13.50;98.90;;;;;;5090968;28;20891;-91
2022/06/05 07:50:13;;;;;;;1.60;0.90;;;13.60;99.10;;;;;;5091315;28;20365;-83
2022/06/05 07:55:26;;;;;;;1.65;1.02;;;13.50;99.50;;;;;;5089710;28;20478;-81
2022/06/05 07:57:54;;;;;;;2.22;0.93;;;13.40;99.30;;;;;;5090725;28;20467;-86
2022/06/05 08:00:21;;;;;;;1.20;0.90;;;13.30;99.40;;;;;;5089676;28;20365;-84
2022/06/05 08:02:48;;;;;;;1.60;0.98;;;13.10;99.90;;;;;;5089116;28;20433;-81
2022/06/05 08:05:15;;;;;;;1.38;0.90;;;13.00;99.90;;;;;;5089484;28;20387;-84
2022/06/05 08:07:43;;;;;;;2.72;0.90;;;13.10;99.90;;;;;;5089360;28;20416;-86
2022/06/05 08:10:10;;;;;;;1.90;0.90;;;13.00;99.90;;;;;;5089092;28;20365;-82
2022/06/05 08:12:37;;;;;;;1.20;0.90;;;13.00;99.90;;;;;;5093334;28;20423;-85
2022/06/05 08:15:08;;;;;;;2.00;0.90;;;13.00;99.90;;;;;;5089357;28;20876;-85
2022/06/05 08:17:36;;;;;;;3.40;1.10;;;13.00;99.90;;;;;;5088844;28;20864;-83
2022/06/05 08:20:06;;;;;;;1.13;0.88;;;12.90;99.90;;;;;;5098652;28;20376;-85
2022/06/05 08:22:33;;;;;;;1.33;0.90;;;12.90;99.90;;;;;;5089339;28;20410;-85
2022/06/05 08:25:01;;;;;;;2.33;0.98;;;12.80;99.90;;;;;;5070721;28;20392;-87
2022/06/05 08:27:29;;;;;;;1.30;0.90;;;12.80;99.90;;;;;;5088632;28;20852;-87
2022/06/05 08:29:57;;;;;;;1.77;0.90;;;12.80;99.90;;;;;;5088604;28;20508;-87
2022/06/05 08:32:27;;;;;;;3.90;2.10;;;12.70;99.90;;;;;;5088521;28;20400;-83
2022/06/05 08:34:55;;;;;;;2.00;1.00;;;12.70;99.90;;;;;;5088486;28;20454;-84
2022/06/05 08:43:19;;;;;;;2.07;0.70;;;12.60;99.90;;;;;;5089261;28;20419;-88
2022/06/05 08:45:58;;;;;;;5.53;2.10;;;12.60;99.90;;;;;;5089131;28;20451;-84
2022/06/05 08:48:47;;;;;;;5.97;2.13;;;12.60;99.90;;;;;;5088974;28;20383;-87
2022/06/05 08:51:33;;;;;;;1.13;0.77;;;12.60;99.90;;;;;;5088485;28;20412;-83
2022/06/05 08:54:06;;;;;;;1.42;1.00;;;12.50;99.90;;;;;;5088838;28;20369;-84
2022/06/05 08:56:45;;;;;;;1.50;0.90;;;12.40;99.90;;;;;;5088996;28;20373;-84
2022/06/05 08:59:50;;;;;;;3.13;1.48;;;12.40;99.90;;;;;;5092351;28;20399;-83
2022/06/05 09:02:35;;;;;;;1.85;1.20;;;12.30;99.90;;;;;;4988577;28;20399;-83
2022/06/05 09:05:32;;;;;;;5.50;2.33;;;12.30;99.90;;;;;;4991617;28;20431;-88
2022/06/05 09:08:04;;;;;;;2.15;1.20;;;12.30;99.90;;;;;;4992682;28;20373;-83
2022/06/05 09:10:43;;;;;;;2.47;1.33;;;12.30;99.90;;;;;;4990984;28;20393;-85
2022/06/05 09:13:31;;;;;;;1.55;0.93;;;12.40;99.90;;;;;;4991257;28;20377;-88
2022/06/05 09:16:05;;;;;;;0.95;0.63;;;12.30;99.90;;;;;;4991298;28;20396;-86
2022/06/05 09:18:38;;;;;;;0.73;0.70;;;12.30;99.90;;;;;;4991321;28;20411;-87
2022/06/05 09:21:21;;;;;;;1.50;1.00;;;12.20;99.90;;;;;;4990932;28;20379;-83
2022/06/05 09:23:54;;;;;;;1.70;0.80;;;12.20;99.90;;;;;;4993012;28;20465;-84
2022/06/05 09:26:43;;;;;;;0.60;0.60;;;12.20;99.90;;;;;;4990945;28;20381;-84
2022/06/05 09:29:36;;;;;;;1.40;0.50;;;12.20;99.90;;;;;;4990508;28;20412;-84
2022/06/05 09:32:30;;;;;;;1.00;0.60;;;12.10;99.90;;;;;;4990337;28;20412;-85
2022/06/05 09:35:14;;;;;;;1.23;0.60;;;12.00;99.90;;;;;;4995847;28;20879;-86
2022/06/05 09:38:25;;;;;;;0.80;0.80;;;11.90;99.90;;;;;;5092041;28;20444;-85
2022/06/05 09:40:57;;;;;;;1.45;0.80;;;11.90;99.90;;;;;;5091946;28;20368;-86
2022/06/05 09:43:50;;;;;;;0.75;0.70;;;11.90;99.90;;;;;;5091973;28;20373;-83
2022/06/05 09:46:48;;;;;;;0.75;0.70;;;11.90;99.90;;;;;;5091317;28;21364;-83
2022/06/05 09:49:54;;;;;;;0.90;0.75;;;11.80;99.90;;;;;;5093086;28;20375;-87
2022/06/05 09:52:25;;;;;;;0.90;0.73;;;11.90;99.90;;;;;;5091717;28;20401;-83
2022/06/05 09:55:23;;;;;;;2.17;0.70;;;11.80;99.90;;;;;;5091826;28;20361;-79
2022/06/05 10:00:53;;;;;;;0.90;0.60;;;11.70;99.90;;;;;;5100186;28;20373;-82
2022/06/05 10:03:42;;;;;;;1.48;0.82;;;11.60;99.90;;;;;;5096782;28;20372;-82
2022/06/05 10:06:17;;;;;;;1.27;0.70;;;11.60;99.90;;;;;;5091696;28;20396;-81
2022/06/05 10:09:11;;;;;;;1.30;0.80;;;11.50;99.90;;;;;;5091484;28;20367;-86
2022/06/05 10:11:53;;;;;;;0.80;0.80;;;11.50;99.90;;;;;;5088083;28;20401;-87
2022/06/05 10:18:17;;;;;;;1.00;0.80;;;11.40;99.90;;;;;;5090898;28;20737;-86
2022/06/05 10:20:54;;;;;;;1.00;0.65;;;11.30;99.90;;;;;;5091160;28;20372;-86
2022/06/05 10:23:32;;;;;;;1.30;0.70;;;11.30;99.90;;;;;;5091441;28;20376;-86
2022/06/05 10:26:18;;;;;;;1.02;0.77;;;11.20;99.90;;;;;;5091837;28;20379;-82
2022/06/05 10:28:47;;;;;;;1.15;0.80;;;11.20;99.90;;;;;;5099238;28;20448;-84
2022/06/05 10:31:20;;;;;;;1.30;0.80;;;11.20;99.90;;;;;;5095808;28;20483;-84
2022/06/05 10:34:18;;;;;;;0.88;0.70;;;11.20;99.90;;;;;;5091468;28;20376;-86
2022/06/05 10:36:59;;;;;;;2.15;0.80;;;11.20;99.90;;;;;;5091374;28;20456;-88
2022/06/05 10:39:53;;;;;;;0.80;0.80;;;11.10;99.90;;;;;;5091211;28;20365;-86
2022/06/05 10:42:51;;;;;;;1.10;0.80;;;11.10;99.90;;;;;;5090722;28;20368;-83
2022/06/05 10:45:41;;;;;;;1.30;0.80;;;11.10;99.90;;;;;;5092505;28;20364;-86
2022/06/05 10:48:18;;;;;;;1.23;1.00;;;11.10;99.90;;;;;;5096739;28;20368;-85
2022/06/05 10:51:20;;;;;;;1.80;0.93;;;11.10;99.90;;;;;;5091418;28;20422;-82
2022/06/05 10:53:52;;;;;;;1.05;0.95;;;11.00;99.90;;;;;;5090216;28;20923;-88
2022/06/05 10:56:50;;;;;;;1.23;1.10;;;11.00;99.90;;;;;;5089289;28;20400;-85
2022/06/05 10:59:35;;;;;;;1.13;1.02;;;10.90;99.90;;;;;;5090420;28;20741;-87
2022/06/05 11:02:23;;;;;;;1.08;0.90;;;10.80;99.90;;;;;;5090930;28;20463;-88
2022/06/05 11:05:15;;;;;;;1.90;0.90;;;10.70;99.90;;;;;;5090732;28;20369;-84
2022/06/05 11:07:55;;;;;;;2.03;1.30;;;10.60;99.90;;;;;;5090946;28;20377;-84
2022/06/05 11:13:54;;;;;;;0.93;0.90;;;10.50;99.90;;;;;;5090824;28;20410;-82
2022/06/05 11:16:33;;;;;;;1.05;0.70;;;10.50;99.90;;;;;;5090311;28;20364;-89
2022/06/05 11:19:13;;;;;;;1.80;0.70;;;10.40;99.90;;;;;;5090392;28;20375;-88
2022/06/05 11:21:43;;;;;;;0.50;0.50;;;10.40;99.90;;;;;;5090372;28;20357;-90
2022/06/05 11:24:29;;;;;;;1.52;0.50;;;10.40;99.90;;;;;;5089889;28;20866;-87
2022/06/05 11:27:32;;;;;;;1.98;0.70;;;10.40;99.90;;;;;;5090254;28;20376;-82
2022/06/05 11:30:40;;;;;;;0.90;0.60;;;10.40;99.90;;;;;;5046625;28;20383;-86
2022/06/05 11:33:19;;;;;;;1.17;0.60;;;10.60;99.90;;;;;;4988657;28;20871;-86
2022/06/05 11:36:15;;;;;;;0.75;0.70;;;10.60;99.90;;;;;;4987987;28;20944;-85
2022/06/05 11:39:10;;;;;;;1.00;0.70;;;10.60;99.90;;;;;;4988686;28;20392;-83
2022/06/05 11:41:48;;;;;;;1.00;0.80;;;10.70;99.90;;;;;;4988072;28;20377;-84
2022/06/05 11:44:33;;;;;;;1.42;0.98;;;10.60;99.90;;;;;;4988739;28;20385;-83
2022/06/05 11:47:24;;;;;;;1.33;0.97;;;10.60;99.90;;;;;;4987901;28;20983;-89
2022/06/05 11:50:06;;;;;;;0.82;0.82;;;10.60;99.90;;;;;;4988165;28;20387;-83
2022/06/05 11:52:41;;;;;;;1.10;1.00;;;10.60;99.90;;;;;;4988027;28;20412;-85
2022/06/05 11:55:11;;;;;;;1.23;1.00;;;10.50;99.90;;;;;;4987943;28;20427;-87
2022/06/05 11:58:01;;;;;;;1.00;0.90;;;10.50;99.90;;;;;;4987926;28;20880;-82
2022/06/05 12:00:36;;;;;;;1.00;0.85;;;10.50;99.90;;;;;;5010603;28;20731;-88
2022/06/05 12:03:10;;;;;;;1.25;0.80;;;10.50;99.90;;;;;;5046879;28;20493;-87
2022/06/05 12:05:57;;;;;;;1.10;0.80;;;10.50;99.90;;;;;;5047237;28;20376;-87
2022/06/05 12:08:31;;;;;;;1.15;0.90;;;10.50;99.90;;;;;;5047055;28;20473;-82
2022/06/05 12:11:04;;;;;;;1.10;0.80;;;10.50;99.90;;;;;;5082859;28;20387;-84
2022/06/05 12:13:53;;;;;;;1.05;0.70;;;10.50;99.90;;;;;;5088832;28;20459;-86
2022/06/05 12:16:56;;;;;;;1.13;0.70;;;10.50;99.90;;;;;;5071894;28;20418;-84
2022/06/05 12:19:53;;;;;;;1.40;0.68;;;10.50;99.90;;;;;;5007043;28;20478;-83
2022/06/05 12:22:41;;;;;;;0.60;0.60;;;10.50;99.90;;;;;;5007476;28;20380;-86
2022/06/05 12:25:20;;;;;;;2.55;0.60;;;10.50;99.90;;;;;;5007010;28;20390;-82
2022/06/05 12:28:03;;;;;;;0.88;0.68;;;10.50;99.90;;;;;;5007185;28;20383;-82
2022/06/05 12:30:36;;;;;;;1.50;0.60;;;10.50;99.90;;;;;;5006828;28;20384;-87
2022/06/05 12:33:24;;;;;;;0.80;0.60;;;10.50;99.90;;;;;;5007178;28;20739;-87
2022/06/05 12:35:55;;;;;;;0.50;0.50;;;11.60;99.90;;;;;;5019501;28;20412;-82
2022/06/05 12:38:34;;;;;;;0.50;0.50;;;10.50;99.90;;;;;;5026729;28;20889;-87
2022/06/05 12:41:15;;;;;;;0.63;0.50;;;10.50;99.90;;;;;;5026029;28;20394;-87
2022/06/05 12:44:06;;;;;;;0.57;0.57;;;10.50;99.90;;;;;;5026508;28;20393;-89
2022/06/05 12:46:51;;;;;;;0.63;0.60;;;10.40;99.90;;;;;;5026834;28;20378;-89
2022/06/05 12:49:24;;;;;;;0.60;0.60;;;10.50;99.90;;;;;;5026544;28;20377;-81
2022/06/05 12:52:23;;;;;;;0.90;0.50;;;10.50;99.90;;;;;;5026736;28;20405;-86
2022/06/05 12:54:57;;;;;;;0.85;0.50;;;10.50;99.90;;;;;;5006133;28;20433;-88
2022/06/05 12:57:52;;;;;;;0.53;0.50;;;10.50;99.90;;;;;;5046840;28;20649;-83
2022/06/05 13:00:47;;;;;;;0.50;0.50;;;10.50;99.90;;;;;;4988785;28;20439;-85
2022/06/05 13:03:35;;;;;;;0.80;0.60;;;10.50;99.90;;;;;;4987314;28;20471;-87
2022/06/05 13:06:13;;;;;;;0.95;0.40;;;10.50;99.90;;;;;;4995149;28;20484;-84
2022/06/05 13:08:57;;;;;;;0.60;0.50;;;10.50;99.90;;;;;;4995950;28;20417;-84
2022/06/05 13:11:34;;;;;;;0.80;0.70;;;10.50;99.90;;;;;;4997435;28;20443;-82
2022/06/05 13:14:19;;;;;;;1.00;0.55;;;10.40;99.90;;;;;;4991811;28;20853;-87
2022/06/05 13:17:15;;;;;;;0.50;0.50;;;10.50;99.90;;;;;;4988313;28;20381;-88
2022/06/05 13:20:02;;;;;;;0.70;0.50;;;10.50;99.90;;;;;;4987004;28;20476;-87
2022/06/05 13:22:39;;;;;;;0.60;0.50;;;10.60;99.90;;;;;;4986947;28;20393;-82
2022/06/05 13:25:25;;;;;;;1.30;0.60;;;10.50;99.90;;;;;;4987434;28;20465;-83
2022/06/05 13:28:06;;;;;;;0.55;0.55;;;10.60;99.90;;;;;;4986819;28;20373;-83
2022/06/05 13:30:54;;;;;;;1.38;0.60;;;10.50;99.90;;;;;;4997284;28;20382;-83
2022/06/05 13:33:21;;;;;;;0.88;0.50;;;10.50;99.90;;;;;;5026097;28;20381;-82
2022/06/05 13:35:58;;;;;;;0.60;0.60;;;10.50;99.90;;;;;;5034189;28;20398;-83
2022/06/05 13:38:38;;;;;;;0.65;0.65;;;10.40;99.90;;;;;;5088608;28;20390;-84
2022/06/05 13:41:11;;;;;;;0.80;0.70;;;10.30;99.90;;;;;;5088458;28;20361;-87
2022/06/05 13:43:41;;;;;;;1.10;0.60;;;10.20;99.90;;;;;;5088254;28;20871;-83
2022/06/05 13:46:23;;;;;;;0.90;0.68;;;10.20;99.90;;;;;;5087966;28;20373;-83
2022/06/05 13:49:10;;;;;;;0.67;0.60;;;10.20;99.90;;;;;;5088336;28;20451;-86
2022/06/05 13:51:46;;;;;;;1.08;0.60;;;10.20;99.90;;;;;;5087954;28;20408;-83
2022/06/05 13:54:43;;;;;;;1.30;0.70;;;10.10;99.90;;;;;;5090978;28;20360;-89